sensor_id;sensor_type;location;lat;lon;timestamp;P1;durP1;ratioP1;P2;durP2;ratioP2
17141;SDS011;32805;53.556;9.944;2023-03-23T00:00:52;7.55;;;5.85;;
17141;SDS011;32805;53.556;9.944;2023-03-23T00:03:19;8.88;;;6.93;;
17141;SDS011;32805;53.556;9.944;2023-03-23T00:05:46;8.00;;;6.82;;
17141;SDS011;32805;53.556;9.944;2023-03-23T00:08:15;10.98;;;8.13;;
17141;SDS011;32805;53.556;9.944;2023-03-23T00:10:44;10.52;;;7.72;;
17141;SDS011;32805;53.556;9.944;2023-03-23T00:13:10;10.70;;;7.32;;
17141;SDS011;32805;53.556;9.944;2023-03-23T00:15:38;11.63;;;8.60;;
17141;SDS011;32805;53.556;9.944;2023-03-23T00:18:06;13.52;;;8.68;;
17141;SDS011;32805;53.556;9.944;2023-03-23T00:20:33;14.25;;;10.32;;
17141;SDS011;32805;53.556;9.944;2023-03-23T00:23:05;12.45;;;10.13;;
17141;SDS011;32805;53.556;9.944;2023-03-23T00:25:32;13.32;;;11.18;;
17141;SDS011;32805;53.556;9.944;2023-03-23T00:28:00;12.73;;;10.35;;
17141;SDS011;32805;53.556;9.944;2023-03-23T00:30:28;14.45;;;11.43;;
17141;SDS011;32805;53.556;9.944;2023-03-23T00:32:55;14.43;;;11.13;;
17141;SDS011;32805;53.556;9.944;2023-03-23T00:35:21;15.05;;;11.40;;
17141;SDS011;32805;53.556;9.944;2023-03-23T00:37:48;17.50;;;12.80;;
17141;SDS011;32805;53.556;9.944;2023-03-23T00:40:14;16.00;;;11.80;;
17141;SDS011;32805;53.556;9.944;2023-03-23T00:42:41;16.92;;;12.18;;
17141;SDS011;32805;53.556;9.944;2023-03-23T00:45:10;15.05;;;11.27;;
17141;SDS011;32805;53.556;9.944;2023-03-23T00:47:37;14.63;;;11.57;;
17141;SDS011;32805;53.556;9.944;2023-03-23T00:50:03;16.25;;;12.45;;
17141;SDS011;32805;53.556;9.944;2023-03-23T00:52:31;15.63;;;11.98;;
17141;SDS011;32805;53.556;9.944;2023-03-23T00:54:57;15.23;;;12.10;;
17141;SDS011;32805;53.556;9.944;2023-03-23T00:57:24;14.73;;;11.07;;
17141;SDS011;32805;53.556;9.944;2023-03-23T00:59:50;17.17;;;11.15;;
17141;SDS011;32805;53.556;9.944;2023-03-23T01:02:18;15.40;;;11.35;;
17141;SDS011;32805;53.556;9.944;2023-03-23T01:04:49;16.33;;;11.73;;
17141;SDS011;32805;53.556;9.944;2023-03-23T01:07:17;14.60;;;11.73;;
17141;SDS011;32805;53.556;9.944;2023-03-23T01:09:44;15.27;;;11.88;;
17141;SDS011;32805;53.556;9.944;2023-03-23T01:12:11;13.98;;;11.30;;
17141;SDS011;32805;53.556;9.944;2023-03-23T01:14:40;13.20;;;11.00;;
17141;SDS011;32805;53.556;9.944;2023-03-23T01:17:06;13.38;;;10.75;;
17141;SDS011;32805;53.556;9.944;2023-03-23T01:19:35;16.48;;;11.40;;
17141;SDS011;32805;53.556;9.944;2023-03-23T01:22:02;15.10;;;11.55;;
17141;SDS011;32805;53.556;9.944;2023-03-23T01:24:30;14.32;;;11.75;;
17141;SDS011;32805;53.556;9.944;2023-03-23T01:26:57;16.08;;;12.55;;
17141;SDS011;32805;53.556;9.944;2023-03-23T01:29:26;14.15;;;11.88;;
17141;SDS011;32805;53.556;9.944;2023-03-23T01:31:53;15.10;;;11.23;;
17141;SDS011;32805;53.556;9.944;2023-03-23T01:34:20;15.77;;;13.27;;
17141;SDS011;32805;53.556;9.944;2023-03-23T01:36:48;16.73;;;12.63;;
17141;SDS011;32805;53.556;9.944;2023-03-23T01:39:15;16.80;;;12.43;;
17141;SDS011;32805;53.556;9.944;2023-03-23T01:41:41;17.20;;;12.95;;
17141;SDS011;32805;53.556;9.944;2023-03-23T01:47:13;15.68;;;11.63;;
17141;SDS011;32805;53.556;9.944;2023-03-23T01:49:40;16.50;;;13.07;;
17141;SDS011;32805;53.556;9.944;2023-03-23T01:52:13;18.70;;;13.40;;
17141;SDS011;32805;53.556;9.944;2023-03-23T01:54:44;17.38;;;13.30;;
17141;SDS011;32805;53.556;9.944;2023-03-23T01:57:13;17.63;;;13.63;;
17141;SDS011;32805;53.556;9.944;2023-03-23T01:59:43;17.77;;;13.57;;
17141;SDS011;32805;53.556;9.944;2023-03-23T02:02:15;15.75;;;13.13;;
17141;SDS011;32805;53.556;9.944;2023-03-23T02:04:44;18.48;;;12.63;;
17141;SDS011;32805;53.556;9.944;2023-03-23T02:07:11;20.15;;;12.32;;
17141;SDS011;32805;53.556;9.944;2023-03-23T02:09:41;16.80;;;13.00;;
17141;SDS011;32805;53.556;9.944;2023-03-23T02:12:08;15.85;;;12.43;;
17141;SDS011;32805;53.556;9.944;2023-03-23T02:14:36;16.02;;;12.52;;
17141;SDS011;32805;53.556;9.944;2023-03-23T02:17:04;14.52;;;11.88;;
17141;SDS011;32805;53.556;9.944;2023-03-23T02:19:41;16.45;;;12.23;;
17141;SDS011;32805;53.556;9.944;2023-03-23T02:22:34;16.90;;;12.10;;
17141;SDS011;32805;53.556;9.944;2023-03-23T02:25:13;15.93;;;11.98;;
17141;SDS011;32805;53.556;9.944;2023-03-23T02:28:00;15.65;;;11.57;;
17141;SDS011;32805;53.556;9.944;2023-03-23T02:30:43;19.70;;;12.70;;
17141;SDS011;32805;53.556;9.944;2023-03-23T02:33:28;14.98;;;12.77;;
17141;SDS011;32805;53.556;9.944;2023-03-23T02:36:02;15.88;;;13.07;;
17141;SDS011;32805;53.556;9.944;2023-03-23T02:38:35;14.52;;;11.95;;
17141;SDS011;32805;53.556;9.944;2023-03-23T02:41:07;17.20;;;13.05;;
17141;SDS011;32805;53.556;9.944;2023-03-23T02:43:38;16.80;;;12.77;;
17141;SDS011;32805;53.556;9.944;2023-03-23T02:46:08;18.92;;;13.20;;
17141;SDS011;32805;53.556;9.944;2023-03-23T02:48:38;16.40;;;12.93;;
17141;SDS011;32805;53.556;9.944;2023-03-23T02:51:06;18.45;;;13.93;;
17141;SDS011;32805;53.556;9.944;2023-03-23T02:53:36;15.52;;;12.32;;
17141;SDS011;32805;53.556;9.944;2023-03-23T02:56:05;15.82;;;13.13;;
17141;SDS011;32805;53.556;9.944;2023-03-23T02:58:33;16.70;;;13.30;;
17141;SDS011;32805;53.556;9.944;2023-03-23T03:01:10;19.00;;;13.45;;
17141;SDS011;32805;53.556;9.944;2023-03-23T03:03:43;16.90;;;13.75;;
17141;SDS011;32805;53.556;9.944;2023-03-23T03:06:10;18.50;;;14.10;;
17141;SDS011;32805;53.556;9.944;2023-03-23T03:08:46;18.05;;;14.20;;
17141;SDS011;32805;53.556;9.944;2023-03-23T03:11:18;19.55;;;14.05;;
17141;SDS011;32805;53.556;9.944;2023-03-23T03:13:48;19.00;;;15.63;;
17141;SDS011;32805;53.556;9.944;2023-03-23T03:16:23;18.67;;;14.57;;
17141;SDS011;32805;53.556;9.944;2023-03-23T03:18:56;18.60;;;14.82;;
17141;SDS011;32805;53.556;9.944;2023-03-23T03:21:27;18.77;;;14.27;;
17141;SDS011;32805;53.556;9.944;2023-03-23T03:23:58;22.42;;;17.15;;
17141;SDS011;32805;53.556;9.944;2023-03-23T03:26:27;19.02;;;15.55;;
17141;SDS011;32805;53.556;9.944;2023-03-23T03:29:01;19.63;;;15.77;;
17141;SDS011;32805;53.556;9.944;2023-03-23T03:31:29;17.52;;;13.98;;
17141;SDS011;32805;53.556;9.944;2023-03-23T03:34:01;19.20;;;14.68;;
17141;SDS011;32805;53.556;9.944;2023-03-23T03:36:30;20.48;;;14.40;;
17141;SDS011;32805;53.556;9.944;2023-03-23T03:39:04;19.10;;;14.23;;
17141;SDS011;32805;53.556;9.944;2023-03-23T03:41:35;20.23;;;14.00;;
17141;SDS011;32805;53.556;9.944;2023-03-23T03:44:04;18.73;;;15.35;;
17141;SDS011;32805;53.556;9.944;2023-03-23T03:46:32;19.77;;;14.55;;
17141;SDS011;32805;53.556;9.944;2023-03-23T03:48:59;20.67;;;15.25;;
17141;SDS011;32805;53.556;9.944;2023-03-23T03:51:28;20.80;;;15.85;;
17141;SDS011;32805;53.556;9.944;2023-03-23T03:53:56;19.63;;;15.80;;
17141;SDS011;32805;53.556;9.944;2023-03-23T03:56:23;23.98;;;17.17;;
17141;SDS011;32805;53.556;9.944;2023-03-23T03:59:02;19.02;;;15.45;;
17141;SDS011;32805;53.556;9.944;2023-03-23T04:01:52;24.00;;;17.20;;
17141;SDS011;32805;53.556;9.944;2023-03-23T04:04:20;21.10;;;16.73;;
17141;SDS011;32805;53.556;9.944;2023-03-23T04:06:49;16.90;;;14.82;;
17141;SDS011;32805;53.556;9.944;2023-03-23T04:09:15;16.20;;;14.20;;
17141;SDS011;32805;53.556;9.944;2023-03-23T04:11:42;18.30;;;15.20;;
17141;SDS011;32805;53.556;9.944;2023-03-23T04:14:27;20.25;;;14.45;;
17141;SDS011;32805;53.556;9.944;2023-03-23T04:16:54;20.52;;;15.27;;
17141;SDS011;32805;53.556;9.944;2023-03-23T04:19:22;19.08;;;13.88;;
17141;SDS011;32805;53.556;9.944;2023-03-23T04:21:51;20.63;;;15.50;;
17141;SDS011;32805;53.556;9.944;2023-03-23T04:24:17;17.55;;;13.73;;
17141;SDS011;32805;53.556;9.944;2023-03-23T04:26:46;15.88;;;13.02;;
17141;SDS011;32805;53.556;9.944;2023-03-23T04:29:21;17.92;;;13.80;;
17141;SDS011;32805;53.556;9.944;2023-03-23T04:32:06;19.98;;;13.75;;
17141;SDS011;32805;53.556;9.944;2023-03-23T04:34:39;19.77;;;14.55;;
17141;SDS011;32805;53.556;9.944;2023-03-23T04:37:07;22.13;;;15.18;;
17141;SDS011;32805;53.556;9.944;2023-03-23T04:39:34;19.33;;;13.68;;
17141;SDS011;32805;53.556;9.944;2023-03-23T04:42:05;16.77;;;14.45;;
17141;SDS011;32805;53.556;9.944;2023-03-23T04:45:09;19.52;;;13.88;;
17141;SDS011;32805;53.556;9.944;2023-03-23T04:47:38;21.20;;;13.90;;
17141;SDS011;32805;53.556;9.944;2023-03-23T04:50:13;20.23;;;15.20;;
17141;SDS011;32805;53.556;9.944;2023-03-23T04:52:42;17.83;;;14.00;;
17141;SDS011;32805;53.556;9.944;2023-03-23T04:55:10;18.40;;;13.85;;
17141;SDS011;32805;53.556;9.944;2023-03-23T04:57:39;15.88;;;13.55;;
17141;SDS011;32805;53.556;9.944;2023-03-23T05:00:26;16.10;;;13.18;;
17141;SDS011;32805;53.556;9.944;2023-03-23T05:02:54;17.25;;;15.20;;
17141;SDS011;32805;53.556;9.944;2023-03-23T05:05:24;19.00;;;15.35;;
17141;SDS011;32805;53.556;9.944;2023-03-23T05:07:56;16.85;;;13.55;;
17141;SDS011;32805;53.556;9.944;2023-03-23T05:10:25;18.00;;;14.65;;
17141;SDS011;32805;53.556;9.944;2023-03-23T05:12:56;14.40;;;12.90;;
17141;SDS011;32805;53.556;9.944;2023-03-23T05:15:23;15.95;;;13.90;;
17141;SDS011;32805;53.556;9.944;2023-03-23T05:17:50;16.15;;;12.77;;
17141;SDS011;32805;53.556;9.944;2023-03-23T05:20:19;13.55;;;11.77;;
17141;SDS011;32805;53.556;9.944;2023-03-23T05:22:49;12.60;;;11.30;;
17141;SDS011;32805;53.556;9.944;2023-03-23T05:25:22;13.07;;;10.90;;
17141;SDS011;32805;53.556;9.944;2023-03-23T05:27:57;11.95;;;10.73;;
17141;SDS011;32805;53.556;9.944;2023-03-23T05:30:49;14.50;;;10.32;;
17141;SDS011;32805;53.556;9.944;2023-03-23T05:33:18;11.88;;;10.68;;
17141;SDS011;32805;53.556;9.944;2023-03-23T05:35:48;13.73;;;11.77;;
17141;SDS011;32805;53.556;9.944;2023-03-23T05:38:20;16.58;;;11.73;;
17141;SDS011;32805;53.556;9.944;2023-03-23T05:40:49;11.63;;;10.07;;
17141;SDS011;32805;53.556;9.944;2023-03-23T05:43:23;14.50;;;10.05;;
17141;SDS011;32805;53.556;9.944;2023-03-23T05:46:05;10.75;;;8.88;;
17141;SDS011;32805;53.556;9.944;2023-03-23T05:48:32;11.73;;;9.82;;
17141;SDS011;32805;53.556;9.944;2023-03-23T05:50:59;9.52;;;8.35;;
17141;SDS011;32805;53.556;9.944;2023-03-23T05:53:27;10.48;;;9.13;;
17141;SDS011;32805;53.556;9.944;2023-03-23T05:55:59;9.77;;;8.77;;
17141;SDS011;32805;53.556;9.944;2023-03-23T05:58:46;10.32;;;8.57;;
17141;SDS011;32805;53.556;9.944;2023-03-23T06:01:13;9.02;;;7.40;;
17141;SDS011;32805;53.556;9.944;2023-03-23T06:03:41;8.95;;;8.02;;
17141;SDS011;32805;53.556;9.944;2023-03-23T06:06:15;10.65;;;8.02;;
17141;SDS011;32805;53.556;9.944;2023-03-23T06:08:50;10.15;;;8.07;;
17141;SDS011;32805;53.556;9.944;2023-03-23T06:11:24;9.05;;;7.28;;
17141;SDS011;32805;53.556;9.944;2023-03-23T06:14:10;8.93;;;7.32;;
17141;SDS011;32805;53.556;9.944;2023-03-23T06:16:37;9.68;;;7.35;;
17141;SDS011;32805;53.556;9.944;2023-03-23T06:19:07;9.73;;;7.40;;
17141;SDS011;32805;53.556;9.944;2023-03-23T06:21:37;9.93;;;7.05;;
17141;SDS011;32805;53.556;9.944;2023-03-23T06:24:21;9.13;;;6.35;;
17141;SDS011;32805;53.556;9.944;2023-03-23T06:26:49;9.00;;;7.07;;
17141;SDS011;32805;53.556;9.944;2023-03-23T06:29:20;9.27;;;6.90;;
17141;SDS011;32805;53.556;9.944;2023-03-23T06:31:52;7.78;;;6.97;;
17141;SDS011;32805;53.556;9.944;2023-03-23T06:34:25;8.48;;;6.82;;
17141;SDS011;32805;53.556;9.944;2023-03-23T06:37:15;7.32;;;6.28;;
17141;SDS011;32805;53.556;9.944;2023-03-23T06:39:56;7.97;;;6.13;;
17141;SDS011;32805;53.556;9.944;2023-03-23T06:42:39;6.03;;;5.43;;
17141;SDS011;32805;53.556;9.944;2023-03-23T06:45:38;10.93;;;6.07;;
17141;SDS011;32805;53.556;9.944;2023-03-23T06:48:27;7.38;;;5.68;;
17141;SDS011;32805;53.556;9.944;2023-03-23T06:50:54;5.97;;;5.20;;
17141;SDS011;32805;53.556;9.944;2023-03-23T06:53:23;5.85;;;4.65;;
17141;SDS011;32805;53.556;9.944;2023-03-23T06:55:52;5.68;;;5.18;;
17141;SDS011;32805;53.556;9.944;2023-03-23T06:58:20;7.22;;;4.97;;
17141;SDS011;32805;53.556;9.944;2023-03-23T07:00:52;6.00;;;4.88;;
17141;SDS011;32805;53.556;9.944;2023-03-23T07:03:20;4.95;;;4.40;;
17141;SDS011;32805;53.556;9.944;2023-03-23T07:05:47;5.88;;;4.32;;
17141;SDS011;32805;53.556;9.944;2023-03-23T07:08:15;6.75;;;4.70;;
17141;SDS011;32805;53.556;9.944;2023-03-23T07:10:50;5.10;;;4.10;;
17141;SDS011;32805;53.556;9.944;2023-03-23T07:13:23;5.00;;;4.50;;
17141;SDS011;32805;53.556;9.944;2023-03-23T07:15:54;4.30;;;3.90;;
17141;SDS011;32805;53.556;9.944;2023-03-23T07:18:21;4.80;;;3.90;;
17141;SDS011;32805;53.556;9.944;2023-03-23T07:20:49;5.78;;;3.70;;
17141;SDS011;32805;53.556;9.944;2023-03-23T07:23:16;4.10;;;3.70;;
17141;SDS011;32805;53.556;9.944;2023-03-23T07:25:49;4.53;;;4.10;;
17141;SDS011;32805;53.556;9.944;2023-03-23T07:28:24;5.45;;;3.80;;
17141;SDS011;32805;53.556;9.944;2023-03-23T07:30:53;6.88;;;4.10;;
17141;SDS011;32805;53.556;9.944;2023-03-23T07:33:20;4.90;;;3.80;;
17141;SDS011;32805;53.556;9.944;2023-03-23T07:35:47;5.50;;;3.70;;
17141;SDS011;32805;53.556;9.944;2023-03-23T07:38:16;5.75;;;4.10;;
17141;SDS011;32805;53.556;9.944;2023-03-23T07:40:46;4.82;;;3.50;;
17141;SDS011;32805;53.556;9.944;2023-03-23T07:43:16;4.55;;;3.58;;
17141;SDS011;32805;53.556;9.944;2023-03-23T07:46:03;4.75;;;3.17;;
17141;SDS011;32805;53.556;9.944;2023-03-23T07:48:43;6.25;;;3.00;;
17141;SDS011;32805;53.556;9.944;2023-03-23T07:51:09;4.78;;;3.28;;
17141;SDS011;32805;53.556;9.944;2023-03-23T07:53:37;5.47;;;3.50;;
17141;SDS011;32805;53.556;9.944;2023-03-23T07:56:32;5.32;;;3.67;;
17141;SDS011;32805;53.556;9.944;2023-03-23T07:59:10;4.72;;;3.85;;
17141;SDS011;32805;53.556;9.944;2023-03-23T08:01:42;6.75;;;4.30;;
17141;SDS011;32805;53.556;9.944;2023-03-23T08:04:29;6.25;;;4.70;;
17141;SDS011;32805;53.556;9.944;2023-03-23T08:07:29;6.90;;;4.88;;
17141;SDS011;32805;53.556;9.944;2023-03-23T08:10:31;6.18;;;4.70;;
17141;SDS011;32805;53.556;9.944;2023-03-23T08:13:14;7.88;;;4.78;;
17141;SDS011;32805;53.556;9.944;2023-03-23T08:15:50;5.82;;;5.22;;
17141;SDS011;32805;53.556;9.944;2023-03-23T08:18:37;5.47;;;4.93;;
17141;SDS011;32805;53.556;9.944;2023-03-23T08:21:16;5.97;;;5.00;;
17141;SDS011;32805;53.556;9.944;2023-03-23T08:24:08;5.65;;;5.10;;
17141;SDS011;32805;53.556;9.944;2023-03-23T08:27:04;5.47;;;4.88;;
17141;SDS011;32805;53.556;9.944;2023-03-23T08:29:47;7.00;;;5.32;;
17141;SDS011;32805;53.556;9.944;2023-03-23T08:32:39;6.55;;;5.90;;
17141;SDS011;32805;53.556;9.944;2023-03-23T08:35:28;4.90;;;4.50;;
17141;SDS011;32805;53.556;9.944;2023-03-23T08:38:06;3.88;;;3.47;;
17141;SDS011;32805;53.556;9.944;2023-03-23T08:40:51;6.38;;;3.45;;
17141;SDS011;32805;53.556;9.944;2023-03-23T08:43:18;4.60;;;2.90;;
17141;SDS011;32805;53.556;9.944;2023-03-23T08:46:09;3.25;;;2.10;;
17141;SDS011;32805;53.556;9.944;2023-03-23T08:48:56;5.60;;;2.55;;
17141;SDS011;32805;53.556;9.944;2023-03-23T08:51:43;5.65;;;2.70;;
17141;SDS011;32805;53.556;9.944;2023-03-23T08:54:30;3.90;;;2.75;;
17141;SDS011;32805;53.556;9.944;2023-03-23T08:57:19;4.90;;;3.35;;
17141;SDS011;32805;53.556;9.944;2023-03-23T09:00:07;4.40;;;3.53;;
17141;SDS011;32805;53.556;9.944;2023-03-23T09:03:03;5.68;;;3.83;;
17141;SDS011;32805;53.556;9.944;2023-03-23T09:05:40;6.38;;;3.72;;
17141;SDS011;32805;53.556;9.944;2023-03-23T09:08:23;5.05;;;3.88;;
17141;SDS011;32805;53.556;9.944;2023-03-23T09:10:50;6.10;;;3.47;;
17141;SDS011;32805;53.556;9.944;2023-03-23T09:13:17;2.72;;;2.33;;
17141;SDS011;32805;53.556;9.944;2023-03-23T09:15:46;4.93;;;2.80;;
17141;SDS011;32805;53.556;9.944;2023-03-23T09:18:15;4.45;;;2.13;;
17141;SDS011;32805;53.556;9.944;2023-03-23T09:20:42;6.40;;;2.40;;
17141;SDS011;32805;53.556;9.944;2023-03-23T09:23:08;5.45;;;2.20;;
17141;SDS011;32805;53.556;9.944;2023-03-23T09:25:37;8.70;;;1.98;;
17141;SDS011;32805;53.556;9.944;2023-03-23T09:28:03;5.10;;;2.25;;
17141;SDS011;32805;53.556;9.944;2023-03-23T09:30:31;6.43;;;1.90;;
17141;SDS011;32805;53.556;9.944;2023-03-23T09:33:01;7.53;;;2.58;;
17141;SDS011;32805;53.556;9.944;2023-03-23T09:35:28;3.50;;;1.83;;
17141;SDS011;32805;53.556;9.944;2023-03-23T09:37:56;9.85;;;2.03;;
17141;SDS011;32805;53.556;9.944;2023-03-23T09:40:26;7.53;;;3.03;;
17141;SDS011;32805;53.556;9.944;2023-03-23T09:43:02;6.80;;;1.77;;
17141;SDS011;32805;53.556;9.944;2023-03-23T09:45:43;10.25;;;1.75;;
17141;SDS011;32805;53.556;9.944;2023-03-23T09:48:24;8.48;;;2.65;;
17141;SDS011;32805;53.556;9.944;2023-03-23T09:51:00;7.22;;;2.45;;
17141;SDS011;32805;53.556;9.944;2023-03-23T09:53:30;6.97;;;2.15;;
17141;SDS011;32805;53.556;9.944;2023-03-23T09:56:02;7.85;;;2.67;;
17141;SDS011;32805;53.556;9.944;2023-03-23T09:58:35;5.03;;;1.73;;
17141;SDS011;32805;53.556;9.944;2023-03-23T10:01:08;5.43;;;1.65;;
17141;SDS011;32805;53.556;9.944;2023-03-23T10:03:46;6.88;;;1.90;;
17141;SDS011;32805;53.556;9.944;2023-03-23T10:06:14;7.38;;;2.05;;
17141;SDS011;32805;53.556;9.944;2023-03-23T10:08:43;7.95;;;1.95;;
17141;SDS011;32805;53.556;9.944;2023-03-23T10:11:14;6.57;;;1.88;;
17141;SDS011;32805;53.556;9.944;2023-03-23T10:13:54;6.88;;;1.58;;
17141;SDS011;32805;53.556;9.944;2023-03-23T10:16:32;9.13;;;2.30;;
17141;SDS011;32805;53.556;9.944;2023-03-23T10:19:03;6.90;;;1.90;;
17141;SDS011;32805;53.556;9.944;2023-03-23T10:21:38;6.35;;;1.83;;
17141;SDS011;32805;53.556;9.944;2023-03-23T10:24:09;8.32;;;2.03;;
17141;SDS011;32805;53.556;9.944;2023-03-23T10:26:39;5.88;;;2.08;;
17141;SDS011;32805;53.556;9.944;2023-03-23T10:29:15;9.20;;;2.08;;
17141;SDS011;32805;53.556;9.944;2023-03-23T10:31:45;6.82;;;1.50;;
17141;SDS011;32805;53.556;9.944;2023-03-23T10:34:16;7.03;;;2.15;;
17141;SDS011;32805;53.556;9.944;2023-03-23T10:36:55;7.85;;;2.20;;
17141;SDS011;32805;53.556;9.944;2023-03-23T10:39:31;6.25;;;1.75;;
17141;SDS011;32805;53.556;9.944;2023-03-23T10:42:05;6.88;;;1.75;;
17141;SDS011;32805;53.556;9.944;2023-03-23T10:44:34;7.63;;;2.10;;
17141;SDS011;32805;53.556;9.944;2023-03-23T10:47:02;7.43;;;1.83;;
17141;SDS011;32805;53.556;9.944;2023-03-23T10:49:31;5.90;;;1.77;;
17141;SDS011;32805;53.556;9.944;2023-03-23T10:52:02;10.07;;;2.20;;
17141;SDS011;32805;53.556;9.944;2023-03-23T10:54:35;8.52;;;2.50;;
17141;SDS011;32805;53.556;9.944;2023-03-23T10:57:12;6.60;;;1.98;;
17141;SDS011;32805;53.556;9.944;2023-03-23T10:59:42;7.65;;;1.88;;
17141;SDS011;32805;53.556;9.944;2023-03-23T11:02:17;6.03;;;2.38;;
17141;SDS011;32805;53.556;9.944;2023-03-23T11:04:45;10.93;;;2.63;;
17141;SDS011;32805;53.556;9.944;2023-03-23T11:07:26;5.57;;;2.42;;
17141;SDS011;32805;53.556;9.944;2023-03-23T11:09:55;11.43;;;2.25;;
17141;SDS011;32805;53.556;9.944;2023-03-23T11:12:24;5.95;;;2.05;;
17141;SDS011;32805;53.556;9.944;2023-03-23T11:15:03;6.65;;;2.25;;
17141;SDS011;32805;53.556;9.944;2023-03-23T11:17:30;7.85;;;1.80;;
17141;SDS011;32805;53.556;9.944;2023-03-23T11:19:57;7.28;;;2.30;;
17141;SDS011;32805;53.556;9.944;2023-03-23T11:22:26;6.25;;;1.98;;
17141;SDS011;32805;53.556;9.944;2023-03-23T11:24:54;6.07;;;2.05;;
17141;SDS011;32805;53.556;9.944;2023-03-23T11:27:22;7.82;;;2.30;;
17141;SDS011;32805;53.556;9.944;2023-03-23T11:29:50;7.00;;;2.50;;
17141;SDS011;32805;53.556;9.944;2023-03-23T11:32:22;13.90;;;3.42;;
17141;SDS011;32805;53.556;9.944;2023-03-23T11:34:53;9.02;;;2.35;;
17141;SDS011;32805;53.556;9.944;2023-03-23T11:37:24;6.85;;;2.40;;
17141;SDS011;32805;53.556;9.944;2023-03-23T11:39:55;8.80;;;3.22;;
17141;SDS011;32805;53.556;9.944;2023-03-23T11:42:23;5.10;;;2.67;;
17141;SDS011;32805;53.556;9.944;2023-03-23T11:44:54;8.30;;;2.25;;
17141;SDS011;32805;53.556;9.944;2023-03-23T11:47:40;10.60;;;2.83;;
17141;SDS011;32805;53.556;9.944;2023-03-23T11:50:12;7.35;;;2.50;;
17141;SDS011;32805;53.556;9.944;2023-03-23T11:52:44;7.30;;;3.00;;
17141;SDS011;32805;53.556;9.944;2023-03-23T11:55:16;8.02;;;2.33;;
17141;SDS011;32805;53.556;9.944;2023-03-23T11:57:48;5.55;;;2.72;;
17141;SDS011;32805;53.556;9.944;2023-03-23T12:00:17;8.00;;;3.47;;
17141;SDS011;32805;53.556;9.944;2023-03-23T12:02:47;7.18;;;3.03;;
17141;SDS011;32805;53.556;9.944;2023-03-23T12:05:40;10.20;;;3.22;;
17141;SDS011;32805;53.556;9.944;2023-03-23T12:08:17;7.70;;;3.40;;
17141;SDS011;32805;53.556;9.944;2023-03-23T12:10:53;5.95;;;3.10;;
17141;SDS011;32805;53.556;9.944;2023-03-23T12:13:31;4.97;;;2.50;;
17141;SDS011;32805;53.556;9.944;2023-03-23T12:16:09;6.65;;;3.20;;
17141;SDS011;32805;53.556;9.944;2023-03-23T12:18:46;8.55;;;3.28;;
17141;SDS011;32805;53.556;9.944;2023-03-23T12:21:18;7.80;;;3.05;;
17141;SDS011;32805;53.556;9.944;2023-03-23T12:23:58;6.80;;;3.40;;
17141;SDS011;32805;53.556;9.944;2023-03-23T12:26:31;8.77;;;3.65;;
17141;SDS011;32805;53.556;9.944;2023-03-23T12:29:10;9.90;;;3.33;;
17141;SDS011;32805;53.556;9.944;2023-03-23T12:31:46;5.95;;;2.67;;
17141;SDS011;32805;53.556;9.944;2023-03-23T12:34:22;10.27;;;3.88;;
17141;SDS011;32805;53.556;9.944;2023-03-23T12:37:01;7.55;;;3.20;;
17141;SDS011;32805;53.556;9.944;2023-03-23T12:39:48;6.70;;;2.78;;
17141;SDS011;32805;53.556;9.944;2023-03-23T12:42:24;7.93;;;3.10;;
17141;SDS011;32805;53.556;9.944;2023-03-23T12:44:59;6.60;;;3.28;;
17141;SDS011;32805;53.556;9.944;2023-03-23T12:47:37;5.75;;;3.08;;
17141;SDS011;32805;53.556;9.944;2023-03-23T12:50:11;10.35;;;5.40;;
17141;SDS011;32805;53.556;9.944;2023-03-23T12:52:45;10.80;;;3.45;;
17141;SDS011;32805;53.556;9.944;2023-03-23T12:55:18;19.38;;;5.20;;
17141;SDS011;32805;53.556;9.944;2023-03-23T12:57:51;11.30;;;3.70;;
17141;SDS011;32805;53.556;9.944;2023-03-23T13:00:25;9.40;;;3.40;;
17141;SDS011;32805;53.556;9.944;2023-03-23T13:02:58;7.05;;;3.10;;
17141;SDS011;32805;53.556;9.944;2023-03-23T13:05:32;7.65;;;3.50;;
17141;SDS011;32805;53.556;9.944;2023-03-23T13:08:03;8.27;;;3.53;;
17141;SDS011;32805;53.556;9.944;2023-03-23T13:10:34;7.35;;;2.75;;
17141;SDS011;32805;53.556;9.944;2023-03-23T13:13:06;6.35;;;2.70;;
17141;SDS011;32805;53.556;9.944;2023-03-23T13:15:43;4.15;;;2.35;;
17141;SDS011;32805;53.556;9.944;2023-03-23T13:18:18;6.05;;;3.03;;
17141;SDS011;32805;53.556;9.944;2023-03-23T13:20:54;5.45;;;2.65;;
17141;SDS011;32805;53.556;9.944;2023-03-23T13:23:28;4.53;;;2.55;;
17141;SDS011;32805;53.556;9.944;2023-03-23T13:25:59;7.43;;;2.67;;
17141;SDS011;32805;53.556;9.944;2023-03-23T13:28:29;5.20;;;2.30;;
17141;SDS011;32805;53.556;9.944;2023-03-23T13:30:59;5.90;;;2.40;;
17141;SDS011;32805;53.556;9.944;2023-03-23T13:33:34;7.50;;;2.83;;
17141;SDS011;32805;53.556;9.944;2023-03-23T13:36:03;6.97;;;3.10;;
17141;SDS011;32805;53.556;9.944;2023-03-23T13:38:34;5.70;;;2.47;;
17141;SDS011;32805;53.556;9.944;2023-03-23T13:41:06;9.60;;;2.80;;
17141;SDS011;32805;53.556;9.944;2023-03-23T13:43:35;4.78;;;2.83;;
17141;SDS011;32805;53.556;9.944;2023-03-23T13:46:07;3.50;;;2.30;;
17141;SDS011;32805;53.556;9.944;2023-03-23T13:48:44;6.65;;;2.85;;
17141;SDS011;32805;53.556;9.944;2023-03-23T13:51:24;8.02;;;2.30;;
17141;SDS011;32805;53.556;9.944;2023-03-23T13:54:03;3.03;;;2.13;;
17141;SDS011;32805;53.556;9.944;2023-03-23T13:56:35;3.95;;;2.20;;
17141;SDS011;32805;53.556;9.944;2023-03-23T13:59:06;4.28;;;2.38;;
17141;SDS011;32805;53.556;9.944;2023-03-23T14:01:39;4.05;;;2.28;;
17141;SDS011;32805;53.556;9.944;2023-03-23T14:04:10;1.02;;;0.90;;
17141;SDS011;32805;53.556;9.944;2023-03-23T14:06:39;2.05;;;0.88;;
17141;SDS011;32805;53.556;9.944;2023-03-23T14:09:14;9.02;;;1.65;;
17141;SDS011;32805;53.556;9.944;2023-03-23T14:11:47;5.60;;;2.00;;
17141;SDS011;32805;53.556;9.944;2023-03-23T14:14:19;2.78;;;1.40;;
17141;SDS011;32805;53.556;9.944;2023-03-23T14:16:50;4.82;;;2.40;;
17141;SDS011;32805;53.556;9.944;2023-03-23T14:19:21;6.07;;;1.83;;
17141;SDS011;32805;53.556;9.944;2023-03-23T14:21:51;5.38;;;2.30;;
17141;SDS011;32805;53.556;9.944;2023-03-23T14:24:20;7.82;;;2.95;;
17141;SDS011;32805;53.556;9.944;2023-03-23T14:26:49;5.75;;;2.47;;
17141;SDS011;32805;53.556;9.944;2023-03-23T14:29:18;7.35;;;2.88;;
17141;SDS011;32805;53.556;9.944;2023-03-23T14:31:48;5.55;;;2.72;;
17141;SDS011;32805;53.556;9.944;2023-03-23T14:34:20;6.78;;;3.10;;
17141;SDS011;32805;53.556;9.944;2023-03-23T14:36:49;6.15;;;3.00;;
17141;SDS011;32805;53.556;9.944;2023-03-23T14:39:19;9.05;;;3.40;;
17141;SDS011;32805;53.556;9.944;2023-03-23T14:41:48;7.53;;;3.72;;
17141;SDS011;32805;53.556;9.944;2023-03-23T14:44:17;9.73;;;3.22;;
17141;SDS011;32805;53.556;9.944;2023-03-23T14:46:47;7.50;;;3.72;;
17141;SDS011;32805;53.556;9.944;2023-03-23T14:49:14;10.23;;;2.90;;
17141;SDS011;32805;53.556;9.944;2023-03-23T14:51:48;4.35;;;2.75;;
17141;SDS011;32805;53.556;9.944;2023-03-23T14:54:19;7.03;;;2.33;;
17141;SDS011;32805;53.556;9.944;2023-03-23T14:56:48;5.45;;;2.50;;
17141;SDS011;32805;53.556;9.944;2023-03-23T14:59:14;4.38;;;2.17;;
17141;SDS011;32805;53.556;9.944;2023-03-23T15:01:41;6.47;;;2.58;;
17141;SDS011;32805;53.556;9.944;2023-03-23T15:04:11;5.45;;;2.65;;
17141;SDS011;32805;53.556;9.944;2023-03-23T15:06:42;3.75;;;2.53;;
17141;SDS011;32805;53.556;9.944;2023-03-23T15:09:12;7.65;;;2.78;;
17141;SDS011;32805;53.556;9.944;2023-03-23T15:11:40;4.93;;;3.00;;
17141;SDS011;32805;53.556;9.944;2023-03-23T15:14:08;6.63;;;3.05;;